sensor_id;sensor_type;location;lat;lon;timestamp;pressure;altitude;pressure_sealevel;temperature;humidity
49529;BME280;35423;37.320;-121.762;2023-03-05T00:01:13;99562.77;;;19.80;24.21
49529;BME280;35423;37.320;-121.762;2023-03-05T00:03:37;99565.10;;;19.91;24.55
49529;BME280;35423;37.320;-121.762;2023-03-05T00:06:04;99568.12;;;19.53;24.52
49529;BME280;35423;37.320;-121.762;2023-03-05T00:08:30;99575.80;;;19.67;23.98
49529;BME280;35423;37.320;-121.762;2023-03-05T00:10:57;99575.78;;;19.76;24.00
49529;BME280;35423;37.320;-121.762;2023-03-05T00:13:25;99576.06;;;19.36;24.00
49529;BME280;35423;37.320;-121.762;2023-03-05T00:15:50;99580.77;;;19.69;23.95
49529;BME280;35423;37.320;-121.762;2023-03-05T00:18:21;99581.39;;;20.03;23.81
49529;BME280;35423;37.320;-121.762;2023-03-05T00:20:47;99582.40;;;20.20;24.09
49529;BME280;35423;37.320;-121.762;2023-03-05T00:23:14;99581.61;;;20.23;24.30
49529;BME280;35423;37.320;-121.762;2023-03-05T00:25:41;99583.56;;;20.90;24.17
49529;BME280;35423;37.320;-121.762;2023-03-05T00:28:08;99589.77;;;21.51;23.25
49529;BME280;35423;37.320;-121.762;2023-03-05T00:30:33;99581.02;;;22.23;22.51
49529;BME280;35423;37.320;-121.762;2023-03-05T00:33:01;99576.67;;;22.17;21.18
49529;BME280;35423;37.320;-121.762;2023-03-05T00:35:28;99579.16;;;22.68;20.91
49529;BME280;35423;37.320;-121.762;2023-03-05T00:38:01;99580.73;;;22.88;20.32
49529;BME280;35423;37.320;-121.762;2023-03-05T00:40:27;99575.25;;;22.64;19.76
49529;BME280;35423;37.320;-121.762;2023-03-05T00:42:52;99572.71;;;22.44;19.47
49529;BME280;35423;37.320;-121.762;2023-03-05T00:45:20;99569.07;;;22.21;19.40
49529;BME280;35423;37.320;-121.762;2023-03-05T00:47:46;99571.61;;;21.92;19.60
49529;BME280;35423;37.320;-121.762;2023-03-05T00:50:14;99572.12;;;21.65;19.65
49529;BME280;35423;37.320;-121.762;2023-03-05T00:52:41;99572.22;;;21.57;19.68
49529;BME280;35423;37.320;-121.762;2023-03-05T00:55:09;99578.94;;;21.22;20.01
49529;BME280;35423;37.320;-121.762;2023-03-05T00:57:34;99580.39;;;21.21;20.09
49529;BME280;35423;37.320;-121.762;2023-03-05T01:00:00;99575.86;;;20.96;20.16
49529;BME280;35423;37.320;-121.762;2023-03-05T01:02:28;99569.70;;;20.78;20.40
49529;BME280;35423;37.320;-121.762;2023-03-05T01:04:58;99568.24;;;20.60;20.16
49529;BME280;35423;37.320;-121.762;2023-03-05T01:07:24;99570.60;;;20.39;20.11
49529;BME280;35423;37.320;-121.762;2023-03-05T01:09:52;99570.40;;;20.31;20.34
49529;BME280;35423;37.320;-121.762;2023-03-05T01:12:30;99573.21;;;20.45;20.10
49529;BME280;35423;37.320;-121.762;2023-03-05T01:14:56;99577.38;;;20.07;20.04
49529;BME280;35423;37.320;-121.762;2023-03-05T01:17:26;99576.51;;;20.21;20.15
49529;BME280;35423;37.320;-121.762;2023-03-05T01:19:57;99577.79;;;20.13;20.25
49529;BME280;35423;37.320;-121.762;2023-03-05T01:22:25;99577.12;;;19.73;20.58
49529;BME280;35423;37.320;-121.762;2023-03-05T01:24:52;99585.41;;;19.93;20.35
49529;BME280;35423;37.320;-121.762;2023-03-05T01:27:17;99585.52;;;19.54;20.23
49529;BME280;35423;37.320;-121.762;2023-03-05T01:29:45;99583.46;;;19.66;20.30
49529;BME280;35423;37.320;-121.762;2023-03-05T01:32:11;99586.58;;;19.50;20.50
49529;BME280;35423;37.320;-121.762;2023-03-05T01:34:41;99587.23;;;19.34;20.84
49529;BME280;35423;37.320;-121.762;2023-03-05T01:37:08;99587.35;;;19.41;20.71
49529;BME280;35423;37.320;-121.762;2023-03-05T01:39:35;99583.18;;;19.25;20.66
49529;BME280;35423;37.320;-121.762;2023-03-05T01:42:04;99580.45;;;19.05;20.79
49529;BME280;35423;37.320;-121.762;2023-03-05T01:44:35;99581.14;;;19.07;20.90
49529;BME280;35423;37.320;-121.762;2023-03-05T01:47:03;99586.70;;;18.87;21.05
49529;BME280;35423;37.320;-121.762;2023-03-05T01:49:31;99588.28;;;18.49;21.24
49529;BME280;35423;37.320;-121.762;2023-03-05T01:52:02;99583.34;;;18.58;21.22
49529;BME280;35423;37.320;-121.762;2023-03-05T01:54:33;99581.66;;;18.69;21.34
49529;BME280;35423;37.320;-121.762;2023-03-05T01:56:54;99590.80;;;18.29;21.56
49529;BME280;35423;37.320;-121.762;2023-03-05T01:59:21;99592.35;;;18.15;21.85
49529;BME280;35423;37.320;-121.762;2023-03-05T02:01:49;99584.98;;;18.04;21.86
49529;BME280;35423;37.320;-121.762;2023-03-05T02:04:19;99587.34;;;18.16;21.96
49529;BME280;35423;37.320;-121.762;2023-03-05T02:06:41;99591.52;;;18.06;22.07
49529;BME280;35423;37.320;-121.762;2023-03-05T02:09:06;99594.25;;;17.86;22.41
49529;BME280;35423;37.320;-121.762;2023-03-05T02:11:32;99596.45;;;17.73;22.60
49529;BME280;35423;37.320;-121.762;2023-03-05T02:13:59;99598.66;;;17.64;22.62
49529;BME280;35423;37.320;-121.762;2023-03-05T02:16:32;99593.96;;;17.50;23.04
49529;BME280;35423;37.320;-121.762;2023-03-05T02:18:53;99592.87;;;17.44;23.06
49529;BME280;35423;37.320;-121.762;2023-03-05T02:21:26;99592.47;;;17.79;23.20
49529;BME280;35423;37.320;-121.762;2023-03-05T02:23:59;99596.41;;;17.24;23.22
49529;BME280;35423;37.320;-121.762;2023-03-05T02:26:25;99597.94;;;17.13;23.34
49529;BME280;35423;37.320;-121.762;2023-03-05T02:29:03;99606.52;;;17.02;23.67
49529;BME280;35423;37.320;-121.762;2023-03-05T02:31:28;99607.30;;;17.14;23.75
49529;BME280;35423;37.320;-121.762;2023-03-05T02:33:53;99611.33;;;17.01;23.79
49529;BME280;35423;37.320;-121.762;2023-03-05T02:36:20;99612.46;;;16.67;24.03
49529;BME280;35423;37.320;-121.762;2023-03-05T02:38:46;99614.37;;;16.77;24.21
49529;BME280;35423;37.320;-121.762;2023-03-05T02:41:15;99618.12;;;16.67;24.37
49529;BME280;35423;37.320;-121.762;2023-03-05T02:43:43;99622.53;;;16.80;24.36
49529;BME280;35423;37.320;-121.762;2023-03-05T02:46:11;99629.56;;;16.68;24.45
49529;BME280;35423;37.320;-121.762;2023-03-05T02:48:38;99630.01;;;16.59;24.49
49529;BME280;35423;37.320;-121.762;2023-03-05T02:51:05;99625.64;;;16.50;24.60
49529;BME280;35423;37.320;-121.762;2023-03-05T02:53:31;99625.87;;;16.39;24.62
49529;BME280;35423;37.320;-121.762;2023-03-05T02:55:56;99627.43;;;16.06;24.65
49529;BME280;35423;37.320;-121.762;2023-03-05T02:58:22;99633.75;;;16.00;24.51
49529;BME280;35423;37.320;-121.762;2023-03-05T03:00:50;99637.10;;;16.16;24.41
49529;BME280;35423;37.320;-121.762;2023-03-05T03:03:17;99634.40;;;16.07;24.43
49529;BME280;35423;37.320;-121.762;2023-03-05T03:05:45;99634.35;;;16.01;24.58
49529;BME280;35423;37.320;-121.762;2023-03-05T03:08:12;99628.53;;;15.92;24.77
49529;BME280;35423;37.320;-121.762;2023-03-05T03:10:44;99634.94;;;15.84;24.93
49529;BME280;35423;37.320;-121.762;2023-03-05T03:13:09;99635.64;;;15.75;25.14
49529;BME280;35423;37.320;-121.762;2023-03-05T03:15:34;99639.25;;;15.71;25.19
49529;BME280;35423;37.320;-121.762;2023-03-05T03:18:01;99644.37;;;15.62;25.22
49529;BME280;35423;37.320;-121.762;2023-03-05T03:20:31;99641.07;;;15.83;25.33
49529;BME280;35423;37.320;-121.762;2023-03-05T03:22:57;99650.81;;;15.52;25.45
49529;BME280;35423;37.320;-121.762;2023-03-05T03:25:31;99649.51;;;15.99;25.44
49529;BME280;35423;37.320;-121.762;2023-03-05T03:27:50;99645.67;;;15.43;25.34
49529;BME280;35423;37.320;-121.762;2023-03-05T03:30:19;99647.96;;;15.87;25.36
49529;BME280;35423;37.320;-121.762;2023-03-05T03:32:45;99653.14;;;15.32;25.32
49529;BME280;35423;37.320;-121.762;2023-03-05T03:35:13;99655.86;;;15.52;25.39
49529;BME280;35423;37.320;-121.762;2023-03-05T03:37:36;99655.10;;;15.17;25.57
49529;BME280;35423;37.320;-121.762;2023-03-05T03:40:06;99656.65;;;15.58;25.62
49529;BME280;35423;37.320;-121.762;2023-03-05T03:42:41;99658.94;;;15.28;25.69
49529;BME280;35423;37.320;-121.762;2023-03-05T03:45:11;99656.13;;;15.18;25.78
49529;BME280;35423;37.320;-121.762;2023-03-05T03:47:36;99660.13;;;15.31;25.86
49529;BME280;35423;37.320;-121.762;2023-03-05T03:50:05;99662.95;;;15.20;26.10
49529;BME280;35423;37.320;-121.762;2023-03-05T03:52:30;99657.52;;;15.16;26.17
49529;BME280;35423;37.320;-121.762;2023-03-05T03:54:55;99658.93;;;15.08;26.14
49529;BME280;35423;37.320;-121.762;2023-03-05T03:57:21;99663.77;;;15.02;26.08
49529;BME280;35423;37.320;-121.762;2023-03-05T03:59:46;99663.02;;;14.73;26.11
49529;BME280;35423;37.320;-121.762;2023-03-05T04:02:13;99664.22;;;15.16;26.07
49529;BME280;35423;37.320;-121.762;2023-03-05T04:04:39;99661.36;;;14.81;26.25
49529;BME280;35423;37.320;-121.762;2023-03-05T04:07:05;99654.10;;;14.74;26.27
49529;BME280;35423;37.320;-121.762;2023-03-05T04:09:32;99654.51;;;14.69;26.27
49529;BME280;35423;37.320;-121.762;2023-03-05T04:12:00;99655.74;;;14.63;26.13
49529;BME280;35423;37.320;-121.762;2023-03-05T04:14:27;99657.89;;;14.82;26.25
49529;BME280;35423;37.320;-121.762;2023-03-05T04:16:52;99665.98;;;14.39;26.21
49529;BME280;35423;37.320;-121.762;2023-03-05T04:19:18;99672.33;;;14.28;26.27
49529;BME280;35423;37.320;-121.762;2023-03-05T04:21:50;99665.56;;;14.20;26.33
49529;BME280;35423;37.320;-121.762;2023-03-05T04:24:17;99673.79;;;14.41;26.35
49529;BME280;35423;37.320;-121.762;2023-03-05T04:26:44;99679.61;;;14.60;26.29
49529;BME280;35423;37.320;-121.762;2023-03-05T04:29:11;99676.05;;;14.36;26.13
49529;BME280;35423;37.320;-121.762;2023-03-05T04:31:40;99667.40;;;14.07;26.27
49529;BME280;35423;37.320;-121.762;2023-03-05T04:34:05;99665.06;;;14.56;26.25
49529;BME280;35423;37.320;-121.762;2023-03-05T04:36:30;99656.40;;;14.32;25.98
49529;BME280;35423;37.320;-121.762;2023-03-05T04:39:01;99665.90;;;14.47;25.80
49529;BME280;35423;37.320;-121.762;2023-03-05T04:41:27;99671.47;;;14.25;25.88
49529;BME280;35423;37.320;-121.762;2023-03-05T04:43:52;99666.19;;;14.26;25.69
49529;BME280;35423;37.320;-121.762;2023-03-05T04:46:20;99668.65;;;14.49;25.69
49529;BME280;35423;37.320;-121.762;2023-03-05T04:48:46;99665.85;;;14.26;25.73
49529;BME280;35423;37.320;-121.762;2023-03-05T04:51:11;99671.58;;;14.20;25.74
49529;BME280;35423;37.320;-121.762;2023-03-05T04:53:40;99666.07;;;14.15;25.74
49529;BME280;35423;37.320;-121.762;2023-03-05T04:56:05;99671.64;;;14.08;25.74
49529;BME280;35423;37.320;-121.762;2023-03-05T04:58:30;99680.55;;;14.05;25.71
49529;BME280;35423;37.320;-121.762;2023-03-05T05:01:00;99681.54;;;14.06;25.76
49529;BME280;35423;37.320;-121.762;2023-03-05T05:03:29;99686.77;;;14.26;25.72
49529;BME280;35423;37.320;-121.762;2023-03-05T05:05:55;99687.91;;;14.23;25.86
49529;BME280;35423;37.320;-121.762;2023-03-05T05:08:19;99692.49;;;13.99;25.83
49529;BME280;35423;37.320;-121.762;2023-03-05T05:13:15;99687.31;;;13.88;25.90
49529;BME280;35423;37.320;-121.762;2023-03-05T05:15:42;99690.26;;;14.12;25.84
49529;BME280;35423;37.320;-121.762;2023-03-05T05:18:07;99680.03;;;14.09;25.86
49529;BME280;35423;37.320;-121.762;2023-03-05T05:20:33;99687.75;;;14.06;25.78
49529;BME280;35423;37.320;-121.762;2023-03-05T05:23:04;99687.87;;;14.21;25.75
49529;BME280;35423;37.320;-121.762;2023-03-05T05:25:30;99678.24;;;13.98;25.67
49529;BME280;35423;37.320;-121.762;2023-03-05T05:27:56;99684.66;;;13.93;25.85
49529;BME280;35423;37.320;-121.762;2023-03-05T05:30:23;99688.85;;;13.91;25.69
49529;BME280;35423;37.320;-121.762;2023-03-05T05:32:53;99686.57;;;13.64;25.60
49529;BME280;35423;37.320;-121.762;2023-03-05T05:35:21;99686.91;;;13.87;25.55
49529;BME280;35423;37.320;-121.762;2023-03-05T05:37:46;99687.50;;;13.65;25.69
49529;BME280;35423;37.320;-121.762;2023-03-05T05:40:14;99683.38;;;13.88;25.80
49529;BME280;35423;37.320;-121.762;2023-03-05T05:42:40;99680.49;;;13.89;25.77
49529;BME280;35423;37.320;-121.762;2023-03-05T05:45:11;99684.36;;;13.91;25.77
49529;BME280;35423;37.320;-121.762;2023-03-05T05:47:36;99679.33;;;13.94;25.71
49529;BME280;35423;37.320;-121.762;2023-03-05T05:50:05;99682.78;;;14.00;25.72
49529;BME280;35423;37.320;-121.762;2023-03-05T05:52:31;99687.75;;;14.06;25.50
49529;BME280;35423;37.320;-121.762;2023-03-05T05:54:54;99689.61;;;14.12;25.28
49529;BME280;35423;37.320;-121.762;2023-03-05T05:57:22;99687.52;;;14.17;24.89
49529;BME280;35423;37.320;-121.762;2023-03-05T05:59:52;99690.15;;;14.12;24.70
49529;BME280;35423;37.320;-121.762;2023-03-05T06:02:16;99682.51;;;14.11;24.92
49529;BME280;35423;37.320;-121.762;2023-03-05T06:04:41;99679.94;;;14.06;25.09
49529;BME280;35423;37.320;-121.762;2023-03-05T06:07:10;99678.15;;;14.02;25.25
49529;BME280;35423;37.320;-121.762;2023-03-05T06:09:39;99678.46;;;14.06;25.42
49529;BME280;35423;37.320;-121.762;2023-03-05T06:12:06;99679.18;;;14.03;25.44
49529;BME280;35423;37.320;-121.762;2023-03-05T06:14:33;99681.99;;;13.99;25.52
49529;BME280;35423;37.320;-121.762;2023-03-05T06:17:00;99682.26;;;13.98;25.60
49529;BME280;35423;37.320;-121.762;2023-03-05T06:19:29;99679.27;;;13.95;25.53
49529;BME280;35423;37.320;-121.762;2023-03-05T06:22:02;99669.27;;;14.14;25.34
49529;BME280;35423;37.320;-121.762;2023-03-05T06:24:27;99664.91;;;13.63;25.34
49529;BME280;35423;37.320;-121.762;2023-03-05T06:27:06;99667.20;;;13.99;25.40
49529;BME280;35423;37.320;-121.762;2023-03-05T06:29:33;99665.23;;;13.80;25.39
49529;BME280;35423;37.320;-121.762;2023-03-05T06:32:00;99665.58;;;13.83;25.58
49529;BME280;35423;37.320;-121.762;2023-03-05T06:34:26;99664.78;;;13.88;25.83
49529;BME280;35423;37.320;-121.762;2023-03-05T06:36:52;99663.80;;;13.98;25.99
49529;BME280;35423;37.320;-121.762;2023-03-05T06:39:19;99669.65;;;14.27;26.09
49529;BME280;35423;37.320;-121.762;2023-03-05T06:41:44;99670.56;;;14.21;26.56
49529;BME280;35423;37.320;-121.762;2023-03-05T06:44:12;99670.68;;;14.21;27.08
49529;BME280;35423;37.320;-121.762;2023-03-05T06:46:37;99669.29;;;13.95;27.91
49529;BME280;35423;37.320;-121.762;2023-03-05T06:49:02;99674.70;;;14.07;28.30
49529;BME280;35423;37.320;-121.762;2023-03-05T06:51:41;99670.82;;;13.96;28.44
49529;BME280;35423;37.320;-121.762;2023-03-05T06:54:06;99670.98;;;13.64;28.66
49529;BME280;35423;37.320;-121.762;2023-03-05T06:56:33;99667.85;;;13.75;28.82
49529;BME280;35423;37.320;-121.762;2023-03-05T06:58:55;99667.88;;;13.95;28.75
49529;BME280;35423;37.320;-121.762;2023-03-05T07:01:22;99665.42;;;13.37;28.74
49529;BME280;35423;37.320;-121.762;2023-03-05T07:03:49;99668.09;;;13.54;28.76
49529;BME280;35423;37.320;-121.762;2023-03-05T07:06:14;99668.69;;;13.81;28.65
49529;BME280;35423;37.320;-121.762;2023-03-05T07:08:42;99664.55;;;13.51;28.69
49529;BME280;35423;37.320;-121.762;2023-03-05T07:11:10;99669.75;;;13.45;28.85
49529;BME280;35423;37.320;-121.762;2023-03-05T07:13:36;99669.07;;;13.36;29.02
49529;BME280;35423;37.320;-121.762;2023-03-05T07:16:06;99666.70;;;13.41;29.05
49529;BME280;35423;37.320;-121.762;2023-03-05T07:18:31;99662.99;;;13.65;29.17
49529;BME280;35423;37.320;-121.762;2023-03-05T07:21:02;99657.47;;;13.13;29.22
49529;BME280;35423;37.320;-121.762;2023-03-05T07:23:23;99657.22;;;13.36;29.27
49529;BME280;35423;37.320;-121.762;2023-03-05T07:25:49;99644.72;;;13.62;29.36
49529;BME280;35423;37.320;-121.762;2023-03-05T07:28:15;99639.59;;;13.60;29.49
49529;BME280;35423;37.320;-121.762;2023-03-05T07:30:44;99629.23;;;13.68;29.43
49529;BME280;35423;37.320;-121.762;2023-03-05T07:33:13;99631.00;;;13.58;29.42
49529;BME280;35423;37.320;-121.762;2023-03-05T07:35:40;99628.26;;;13.30;29.31
49529;BME280;35423;37.320;-121.762;2023-03-05T07:38:05;99629.69;;;13.52;29.18
49529;BME280;35423;37.320;-121.762;2023-03-05T07:40:34;99637.94;;;13.46;29.16
49529;BME280;35423;37.320;-121.762;2023-03-05T07:43:00;99654.70;;;13.40;29.26
49529;BME280;35423;37.320;-121.762;2023-03-05T07:45:26;99653.53;;;12.89;29.24
49529;BME280;35423;37.320;-121.762;2023-03-05T07:47:53;99659.42;;;13.11;29.21
49529;BME280;35423;37.320;-121.762;2023-03-05T07:50:18;99653.50;;;13.37;29.22
49529;BME280;35423;37.320;-121.762;2023-03-05T07:52:44;99647.95;;;13.39;29.16
49529;BME280;35423;37.320;-121.762;2023-03-05T07:55:11;99645.82;;;13.42;29.18
49529;BME280;35423;37.320;-121.762;2023-03-05T07:57:41;99649.84;;;13.43;29.35
49529;BME280;35423;37.320;-121.762;2023-03-05T08:00:07;99651.06;;;13.47;29.42
49529;BME280;35423;37.320;-121.762;2023-03-05T08:02:32;99636.12;;;13.48;28.94
49529;BME280;35423;37.320;-121.762;2023-03-05T08:04:57;99628.93;;;13.51;29.08
49529;BME280;35423;37.320;-121.762;2023-03-05T08:07:23;99627.47;;;13.72;29.08
49529;BME280;35423;37.320;-121.762;2023-03-05T08:09:56;99625.28;;;13.53;29.19
49529;BME280;35423;37.320;-121.762;2023-03-05T08:12:25;99624.12;;;13.46;29.25
49529;BME280;35423;37.320;-121.762;2023-03-05T08:14:52;99618.05;;;13.46;29.12
49529;BME280;35423;37.320;-121.762;2023-03-05T08:17:16;99623.39;;;13.44;28.99
49529;BME280;35423;37.320;-121.762;2023-03-05T08:19:49;99620.42;;;13.48;28.85
49529;BME280;35423;37.320;-121.762;2023-03-05T08:22:17;99611.93;;;13.48;28.87
49529;BME280;35423;37.320;-121.762;2023-03-05T08:24:43;99618.11;;;13.50;28.83
49529;BME280;35423;37.320;-121.762;2023-03-05T08:27:08;99620.94;;;13.58;29.01
49529;BME280;35423;37.320;-121.762;2023-03-05T08:29:33;99613.74;;;13.63;29.02
49529;BME280;35423;37.320;-121.762;2023-03-05T08:31:59;99609.11;;;13.38;29.05
49529;BME280;35423;37.320;-121.762;2023-03-05T08:34:24;99606.12;;;13.25;29.10
49529;BME280;35423;37.320;-121.762;2023-03-05T08:36:52;99604.57;;;13.78;29.25
49529;BME280;35423;37.320;-121.762;2023-03-05T08:39:19;99607.46;;;13.54;29.45
49529;BME280;35423;37.320;-121.762;2023-03-05T08:41:46;99596.16;;;13.79;29.76
49529;BME280;35423;37.320;-121.762;2023-03-05T08:44:13;99591.35;;;13.51;30.20
49529;BME280;35423;37.320;-121.762;2023-03-05T08:46:39;99597.32;;;13.40;30.53
49529;BME280;35423;37.320;-121.762;2023-03-05T08:49:06;99600.11;;;13.39;30.74
49529;BME280;35423;37.320;-121.762;2023-03-05T08:51:35;99589.61;;;13.62;30.94
49529;BME280;35423;37.320;-121.762;2023-03-05T08:54:02;99584.36;;;13.62;31.04
49529;BME280;35423;37.320;-121.762;2023-03-05T08:56:27;99578.09;;;13.68;30.96
49529;BME280;35423;37.320;-121.762;2023-03-05T08:58:52;99574.87;;;13.57;30.95
49529;BME280;35423;37.320;-121.762;2023-03-05T09:01:17;99571.30;;;13.60;30.94
49529;BME280;35423;37.320;-121.762;2023-03-05T09:03:50;99551.03;;;13.58;31.02
49529;BME280;35423;37.320;-121.762;2023-03-05T09:06:15;99548.45;;;13.54;31.20
49529;BME280;35423;37.320;-121.762;2023-03-05T09:08:46;99547.95;;;13.43;31.61
49529;BME280;35423;37.320;-121.762;2023-03-05T09:11:16;99541.67;;;13.77;31.51
49529;BME280;35423;37.320;-121.762;2023-03-05T09:13:42;99536.44;;;13.56;31.56
49529;BME280;35423;37.320;-121.762;2023-03-05T09:16:12;99541.61;;;13.34;31.67
49529;BME280;35423;37.320;-121.762;2023-03-05T09:18:42;99543.92;;;13.36;31.82
49529;BME280;35423;37.320;-121.762;2023-03-05T09:21:10;99548.51;;;13.65;31.94
49529;BME280;35423;37.320;-121.762;2023-03-05T09:23:36;99539.58;;;13.67;31.97
49529;BME280;35423;37.320;-121.762;2023-03-05T09:26:03;99532.11;;;13.70;32.07
49529;BME280;35423;37.320;-121.762;2023-03-05T09:28:31;99523.15;;;13.35;32.25
49529;BME280;35423;37.320;-121.762;2023-03-05T09:30:55;99515.00;;;13.73;32.20
49529;BME280;35423;37.320;-121.762;2023-03-05T09:33:26;99520.28;;;13.73;32.26
49529;BME280;35423;37.320;-121.762;2023-03-05T09:35:53;99503.89;;;13.67;32.45
49529;BME280;35423;37.320;-121.762;2023-03-05T09:38:20;99513.81;;;13.43;32.63
49529;BME280;35423;37.320;-121.762;2023-03-05T09:40:52;99529.11;;;13.68;32.93
49529;BME280;35423;37.320;-121.762;2023-03-05T09:43:27;99534.46;;;13.43;33.39
49529;BME280;35423;37.320;-121.762;2023-03-05T09:46:01;99533.01;;;13.16;34.24
49529;BME280;35423;37.320;-121.762;2023-03-05T09:48:18;99543.20;;;13.01;34.73
49529;BME280;35423;37.320;-121.762;2023-03-05T09:50:43;99541.35;;;12.88;35.97
49529;BME280;35423;37.320;-121.762;2023-03-05T09:53:16;99540.57;;;12.44;36.09
49529;BME280;35423;37.320;-121.762;2023-03-05T09:55:43;99540.32;;;12.87;36.35
49529;BME280;35423;37.320;-121.762;2023-03-05T09:58:09;99548.82;;;12.34;36.44
49529;BME280;35423;37.320;-121.762;2023-03-05T10:00:38;99552.10;;;12.38;36.56
49529;BME280;35423;37.320;-121.762;2023-03-05T10:03:09;99553.01;;;12.90;36.45
49529;BME280;35423;37.320;-121.762;2023-03-05T10:07:58;99546.69;;;12.46;36.63
49529;BME280;35423;37.320;-121.762;2023-03-05T10:10:26;99544.80;;;13.04;36.48
49529;BME280;35423;37.320;-121.762;2023-03-05T10:12:51;99529.25;;;12.73;36.84
49529;BME280;35423;37.320;-121.762;2023-03-05T10:15:20;99521.67;;;12.54;36.83
49529;BME280;35423;37.320;-121.762;2023-03-05T10:17:49;99526.92;;;12.50;36.98
49529;BME280;35423;37.320;-121.762;2023-03-05T10:20:18;99524.73;;;12.50;36.80
49529;BME280;35423;37.320;-121.762;2023-03-05T10:22:45;99521.59;;;12.36;36.96
49529;BME280;35423;37.320;-121.762;2023-03-05T10:25:13;99545.01;;;12.93;36.84
49529;BME280;35423;37.320;-121.762;2023-03-05T10:27:40;99556.07;;;12.79;37.57
49529;BME280;35423;37.320;-121.762;2023-03-05T10:30:05;99548.26;;;12.24;37.95
49529;BME280;35423;37.320;-121.762;2023-03-05T10:32:34;99539.96;;;12.38;37.88
49529;BME280;35423;37.320;-121.762;2023-03-05T10:35:04;99549.84;;;12.35;37.74
49529;BME280;35423;37.320;-121.762;2023-03-05T10:37:33;99557.25;;;12.35;37.79
49529;BME280;35423;37.320;-121.762;2023-03-05T10:39:52;99570.29;;;12.31;37.99
49529;BME280;35423;37.320;-121.762;2023-03-05T10:42:18;99579.68;;;12.58;37.77
49529;BME280;35423;37.320;-121.762;2023-03-05T10:44:40;99586.17;;;12.37;37.74
49529;BME280;35423;37.320;-121.762;2023-03-05T10:47:08;99575.56;;;12.80;37.58
49529;BME280;35423;37.320;-121.762;2023-03-05T10:49:31;99584.79;;;12.53;37.70
49529;BME280;35423;37.320;-121.762;2023-03-05T10:52:01;99585.77;;;12.24;37.81
49529;BME280;35423;37.320;-121.762;2023-03-05T10:54:26;99599.03;;;12.34;38.13
49529;BME280;35423;37.320;-121.762;2023-03-05T10:56:48;99578.43;;;12.34;37.97
49529;BME280;35423;37.320;-121.762;2023-03-05T10:59:14;99567.53;;;12.13;37.72
49529;BME280;35423;37.320;-121.762;2023-03-05T11:01:40;99562.50;;;12.49;38.01
49529;BME280;35423;37.320;-121.762;2023-03-05T11:06:41;99552.34;;;12.38;38.29
49529;BME280;35423;37.320;-121.762;2023-03-05T11:09:18;99553.18;;;11.90;38.10
49529;BME280;35423;37.320;-121.762;2023-03-05T11:11:31;99552.29;;;12.12;38.15
49529;BME280;35423;37.320;-121.762;2023-03-05T11:14:01;99555.64;;;11.95;38.00
49529;BME280;35423;37.320;-121.762;2023-03-05T11:16:28;99548.07;;;12.46;37.98
49529;BME280;35423;37.320;-121.762;2023-03-05T11:21:23;99549.85;;;12.52;37.93
49529;BME280;35423;37.320;-121.762;2023-03-05T11:26:22;99561.14;;;12.19;37.75
49529;BME280;35423;37.320;-121.762;2023-03-05T11:33:37;99601.51;;;12.35;37.27
49529;BME280;35423;37.320;-121.762;2023-03-05T11:36:15;99601.65;;;12.55;37.00
49529;BME280;35423;37.320;-121.762;2023-03-05T11:38:30;99626.03;;;12.47;36.97
49529;BME280;35423;37.320;-121.762;2023-03-05T11:40:58;99642.34;;;12.21;36.75
49529;BME280;35423;37.320;-121.762;2023-03-05T11:43:24;99643.77;;;12.10;36.79
49529;BME280;35423;37.320;-121.762;2023-03-05T11:45:49;99648.50;;;12.04;36.85
49529;BME280;35423;37.320;-121.762;2023-03-05T11:48:20;99645.85;;;11.98;36.86
49529;BME280;35423;37.320;-121.762;2023-03-05T11:50:46;99652.44;;;12.45;36.90
49529;BME280;35423;37.320;-121.762;2023-03-05T11:53:17;99654.58;;;12.15;36.89
49529;BME280;35423;37.320;-121.762;2023-03-05T11:55:44;99649.12;;;12.13;36.85
49529;BME280;35423;37.320;-121.762;2023-03-05T11:58:15;99651.85;;;12.10;36.87
49529;BME280;35423;37.320;-121.762;2023-03-05T12:00:35;99646.16;;;12.07;36.58
49529;BME280;35423;37.320;-121.762;2023-03-05T12:03:01;99633.20;;;12.06;36.54
49529;BME280;35423;37.320;-121.762;2023-03-05T12:05:27;99629.28;;;12.00;36.52
49529;BME280;35423;37.320;-121.762;2023-03-05T12:08:00;99622.47;;;11.96;36.62
49529;BME280;35423;37.320;-121.762;2023-03-05T12:10:25;99613.15;;;12.28;36.57
49529;BME280;35423;37.320;-121.762;2023-03-05T12:12:54;99603.70;;;11.76;36.41
49529;BME280;35423;37.320;-121.762;2023-03-05T12:17:48;99609.20;;;12.16;36.64
49529;BME280;35423;37.320;-121.762;2023-03-05T12:20:17;99611.20;;;11.92;36.72
49529;BME280;35423;37.320;-121.762;2023-03-05T12:22:41;99613.61;;;12.22;36.67
49529;BME280;35423;37.320;-121.762;2023-03-05T12:25:20;99609.45;;;11.73;36.59
49529;BME280;35423;37.320;-121.762;2023-03-05T12:27:37;99615.56;;;11.78;36.43
49529;BME280;35423;37.320;-121.762;2023-03-05T12:30:02;99613.40;;;11.80;36.37
49529;BME280;35423;37.320;-121.762;2023-03-05T12:35:00;99598.22;;;11.98;36.33
49529;BME280;35423;37.320;-121.762;2023-03-05T12:39:59;99605.50;;;11.92;36.25
49529;BME280;35423;37.320;-121.762;2023-03-05T12:47:19;99616.63;;;11.88;36.53
49529;BME280;35423;37.320;-121.762;2023-03-05T12:49:50;99624.68;;;11.95;36.56
49529;BME280;35423;37.320;-121.762;2023-03-05T12:52:21;99626.59;;;12.03;36.59
49529;BME280;35423;37.320;-121.762;2023-03-05T12:54:40;99620.97;;;12.36;36.69
49529;BME280;35423;37.320;-121.762;2023-03-05T12:59:41;99634.36;;;12.50;36.63
49529;BME280;35423;37.320;-121.762;2023-03-05T13:04:32;99650.82;;;12.63;36.64